sensor_id;sensor_type;location;lat;lon;timestamp;temperature;humidity
74511;DHT22;62991;50.040;18.400;2023-05-07T00:01:16;11.60;72.30
74511;DHT22;62991;50.040;18.400;2023-05-07T00:04:17;11.60;72.10
74511;DHT22;62991;50.040;18.400;2023-05-07T00:07:18;11.60;72.50
74511;DHT22;62991;50.040;18.400;2023-05-07T00:10:19;11.50;73.10
74511;DHT22;62991;50.040;18.400;2023-05-07T00:13:19;11.50;72.50
74511;DHT22;62991;50.040;18.400;2023-05-07T00:16:20;11.40;72.80
74511;DHT22;62991;50.040;18.400;2023-05-07T00:19:21;11.60;72.40
74511;DHT22;62991;50.040;18.400;2023-05-07T00:22:21;11.70;72.10
74511;DHT22;62991;50.040;18.400;2023-05-07T00:25:22;11.60;71.80
74511;DHT22;62991;50.040;18.400;2023-05-07T00:28:23;11.60;71.30
74511;DHT22;62991;50.040;18.400;2023-05-07T00:31:23;11.60;71.20
74511;DHT22;62991;50.040;18.400;2023-05-07T00:34:24;11.70;70.80
74511;DHT22;62991;50.040;18.400;2023-05-07T00:37:25;11.60;70.50
74511;DHT22;62991;50.040;18.400;2023-05-07T00:40:25;11.70;70.70
74511;DHT22;62991;50.040;18.400;2023-05-07T00:43:26;11.70;70.60
74511;DHT22;62991;50.040;18.400;2023-05-07T00:46:28;12.00;69.60
74511;DHT22;62991;50.040;18.400;2023-05-07T00:49:46;12.00;69.40
74511;DHT22;62991;50.040;18.400;2023-05-07T00:52:47;12.00;69.50
74511;DHT22;62991;50.040;18.400;2023-05-07T00:55:48;12.00;69.00
74511;DHT22;62991;50.040;18.400;2023-05-07T00:58:49;11.80;69.40
74511;DHT22;62991;50.040;18.400;2023-05-07T01:01:49;11.70;70.00
74511;DHT22;62991;50.040;18.400;2023-05-07T01:04:50;11.60;70.00
74511;DHT22;62991;50.040;18.400;2023-05-07T01:07:52;11.60;70.20
74511;DHT22;62991;50.040;18.400;2023-05-07T01:10:55;11.60;70.20
74511;DHT22;62991;50.040;18.400;2023-05-07T01:13:58;11.70;69.80
74511;DHT22;62991;50.040;18.400;2023-05-07T01:16:59;11.70;70.00
74511;DHT22;62991;50.040;18.400;2023-05-07T01:20:00;11.80;69.10
74511;DHT22;62991;50.040;18.400;2023-05-07T01:23:01;11.90;69.40
74511;DHT22;62991;50.040;18.400;2023-05-07T01:26:03;12.10;68.70
74511;DHT22;62991;50.040;18.400;2023-05-07T01:29:04;12.10;68.80
74511;DHT22;62991;50.040;18.400;2023-05-07T01:32:05;12.00;68.90
74511;DHT22;62991;50.040;18.400;2023-05-07T01:35:09;11.80;69.20
74511;DHT22;62991;50.040;18.400;2023-05-07T01:38:10;11.70;69.30
74511;DHT22;62991;50.040;18.400;2023-05-07T01:41:12;11.50;69.80
74511;DHT22;62991;50.040;18.400;2023-05-07T01:44:13;11.50;70.50
74511;DHT22;62991;50.040;18.400;2023-05-07T01:47:16;11.50;70.10
74511;DHT22;62991;50.040;18.400;2023-05-07T01:50:18;11.40;70.60
74511;DHT22;62991;50.040;18.400;2023-05-07T01:53:19;11.50;70.40
74511;DHT22;62991;50.040;18.400;2023-05-07T01:56:20;11.50;70.40
74511;DHT22;62991;50.040;18.400;2023-05-07T01:59:21;11.40;70.90
74511;DHT22;62991;50.040;18.400;2023-05-07T02:02:22;11.30;71.20
74511;DHT22;62991;50.040;18.400;2023-05-07T02:05:23;11.60;70.30
74511;DHT22;62991;50.040;18.400;2023-05-07T02:08:23;11.60;70.60
74511;DHT22;62991;50.040;18.400;2023-05-07T02:11:24;11.80;69.90
74511;DHT22;62991;50.040;18.400;2023-05-07T02:14:25;11.90;69.30
74511;DHT22;62991;50.040;18.400;2023-05-07T02:17:26;11.70;70.00
74511;DHT22;62991;50.040;18.400;2023-05-07T02:20:27;11.80;69.80
74511;DHT22;62991;50.040;18.400;2023-05-07T02:23:27;11.80;69.70
74511;DHT22;62991;50.040;18.400;2023-05-07T02:26:28;11.60;70.40
74511;DHT22;62991;50.040;18.400;2023-05-07T02:29:29;11.60;70.60
74511;DHT22;62991;50.040;18.400;2023-05-07T02:32:30;11.60;70.70
74511;DHT22;62991;50.040;18.400;2023-05-07T02:35:31;11.50;70.60
74511;DHT22;62991;50.040;18.400;2023-05-07T02:38:31;11.40;71.50
74511;DHT22;62991;50.040;18.400;2023-05-07T02:41:32;11.30;71.60
74511;DHT22;62991;50.040;18.400;2023-05-07T02:44:33;11.20;72.10
74511;DHT22;62991;50.040;18.400;2023-05-07T02:47:33;11.20;72.20
74511;DHT22;62991;50.040;18.400;2023-05-07T02:50:34;11.30;71.90
74511;DHT22;62991;50.040;18.400;2023-05-07T02:53:35;11.30;72.10
74511;DHT22;62991;50.040;18.400;2023-05-07T02:56:35;11.50;72.00
74511;DHT22;62991;50.040;18.400;2023-05-07T02:59:36;11.50;72.00
74511;DHT22;62991;50.040;18.400;2023-05-07T03:02:36;11.70;70.90
74511;DHT22;62991;50.040;18.400;2023-05-07T03:05:37;11.50;71.60
74511;DHT22;62991;50.040;18.400;2023-05-07T03:08:38;11.60;71.40
74511;DHT22;62991;50.040;18.400;2023-05-07T03:11:38;11.60;71.50
74511;DHT22;62991;50.040;18.400;2023-05-07T03:14:39;11.50;71.70
74511;DHT22;62991;50.040;18.400;2023-05-07T03:17:40;11.40;72.30
74511;DHT22;62991;50.040;18.400;2023-05-07T03:20:41;11.60;71.50
74511;DHT22;62991;50.040;18.400;2023-05-07T03:23:41;11.60;71.80
74511;DHT22;62991;50.040;18.400;2023-05-07T03:26:42;11.50;71.60
74511;DHT22;62991;50.040;18.400;2023-05-07T03:29:42;11.40;71.90
74511;DHT22;62991;50.040;18.400;2023-05-07T03:32:43;11.30;72.50
74511;DHT22;62991;50.040;18.400;2023-05-07T03:35:44;11.20;72.50
74511;DHT22;62991;50.040;18.400;2023-05-07T03:38:44;11.20;72.20
74511;DHT22;62991;50.040;18.400;2023-05-07T03:41:45;11.20;72.70
74511;DHT22;62991;50.040;18.400;2023-05-07T03:44:46;11.10;72.50
74511;DHT22;62991;50.040;18.400;2023-05-07T03:47:46;11.10;72.40
74511;DHT22;62991;50.040;18.400;2023-05-07T03:50:47;11.00;72.40
74511;DHT22;62991;50.040;18.400;2023-05-07T03:53:48;10.90;72.70
74511;DHT22;62991;50.040;18.400;2023-05-07T03:56:48;10.80;73.20
74511;DHT22;62991;50.040;18.400;2023-05-07T03:59:49;10.90;72.70
74511;DHT22;62991;50.040;18.400;2023-05-07T04:02:50;10.90;72.80
74511;DHT22;62991;50.040;18.400;2023-05-07T04:05:50;11.00;72.40
74511;DHT22;62991;50.040;18.400;2023-05-07T04:08:51;11.00;72.20
74511;DHT22;62991;50.040;18.400;2023-05-07T04:11:52;11.00;72.60
74511;DHT22;62991;50.040;18.400;2023-05-07T04:14:52;11.00;72.60
74511;DHT22;62991;50.040;18.400;2023-05-07T04:17:53;11.10;72.20
74511;DHT22;62991;50.040;18.400;2023-05-07T04:20:54;11.20;71.20
74511;DHT22;62991;50.040;18.400;2023-05-07T04:23:56;11.20;71.30
74511;DHT22;62991;50.040;18.400;2023-05-07T04:26:56;11.00;71.90
74511;DHT22;62991;50.040;18.400;2023-05-07T04:29:58;10.90;72.90
74511;DHT22;62991;50.040;18.400;2023-05-07T04:33:01;10.90;72.50
74511;DHT22;62991;50.040;18.400;2023-05-07T04:36:02;11.00;72.00
74511;DHT22;62991;50.040;18.400;2023-05-07T04:39:04;10.90;72.30
74511;DHT22;62991;50.040;18.400;2023-05-07T04:42:05;10.70;73.40
74511;DHT22;62991;50.040;18.400;2023-05-07T04:45:09;10.80;73.00
74511;DHT22;62991;50.040;18.400;2023-05-07T04:48:10;10.70;73.60
74511;DHT22;62991;50.040;18.400;2023-05-07T04:51:11;10.80;73.00
74511;DHT22;62991;50.040;18.400;2023-05-07T04:54:11;10.70;73.40
74511;DHT22;62991;50.040;18.400;2023-05-07T04:57:12;10.60;73.60
74511;DHT22;62991;50.040;18.400;2023-05-07T05:00:13;10.80;73.30
74511;DHT22;62991;50.040;18.400;2023-05-07T05:03:15;10.80;72.90
74511;DHT22;62991;50.040;18.400;2023-05-07T05:06:15;10.80;73.30
74511;DHT22;62991;50.040;18.400;2023-05-07T05:09:16;10.80;72.50
74511;DHT22;62991;50.040;18.400;2023-05-07T05:12:16;10.80;72.40
74511;DHT22;62991;50.040;18.400;2023-05-07T05:15:17;10.80;72.80
74511;DHT22;62991;50.040;18.400;2023-05-07T05:18:18;10.80;71.90
74511;DHT22;62991;50.040;18.400;2023-05-07T05:21:19;10.90;72.00
74511;DHT22;62991;50.040;18.400;2023-05-07T05:24:19;10.90;72.00
74511;DHT22;62991;50.040;18.400;2023-05-07T05:27:20;10.80;72.40
74511;DHT22;62991;50.040;18.400;2023-05-07T05:30:21;10.70;72.80
74511;DHT22;62991;50.040;18.400;2023-05-07T05:33:21;10.70;73.10
74511;DHT22;62991;50.040;18.400;2023-05-07T05:36:22;10.50;73.20
74511;DHT22;62991;50.040;18.400;2023-05-07T05:39:23;10.50;73.80
74511;DHT22;62991;50.040;18.400;2023-05-07T05:42:23;10.60;73.30
74511;DHT22;62991;50.040;18.400;2023-05-07T05:45:24;10.50;73.90
74511;DHT22;62991;50.040;18.400;2023-05-07T05:48:25;10.50;73.70
74511;DHT22;62991;50.040;18.400;2023-05-07T05:51:26;10.30;73.90
74511;DHT22;62991;50.040;18.400;2023-05-07T05:54:26;10.20;74.20
74511;DHT22;62991;50.040;18.400;2023-05-07T05:57:27;10.20;74.50
74511;DHT22;62991;50.040;18.400;2023-05-07T06:00:28;10.20;74.30
74511;DHT22;62991;50.040;18.400;2023-05-07T06:03:29;10.30;76.20
74511;DHT22;62991;50.040;18.400;2023-05-07T06:06:30;10.50;73.60
74511;DHT22;62991;50.040;18.400;2023-05-07T06:09:31;10.50;73.30
74511;DHT22;62991;50.040;18.400;2023-05-07T06:12:32;10.40;73.50
74511;DHT22;62991;50.040;18.400;2023-05-07T06:15:33;10.20;74.00
74511;DHT22;62991;50.040;18.400;2023-05-07T06:18:33;10.10;74.10
74511;DHT22;62991;50.040;18.400;2023-05-07T06:21:36;10.10;73.90
74511;DHT22;62991;50.040;18.400;2023-05-07T06:24:37;10.00;73.60
74511;DHT22;62991;50.040;18.400;2023-05-07T06:27:37;9.90;73.50
74511;DHT22;62991;50.040;18.400;2023-05-07T06:30:39;9.90;73.60
74511;DHT22;62991;50.040;18.400;2023-05-07T06:33:41;9.90;74.20
74511;DHT22;62991;50.040;18.400;2023-05-07T06:36:42;9.90;73.40
74511;DHT22;62991;50.040;18.400;2023-05-07T06:39:42;10.10;73.10
74511;DHT22;62991;50.040;18.400;2023-05-07T06:42:43;10.20;72.10
74511;DHT22;62991;50.040;18.400;2023-05-07T06:45:43;10.10;72.80
74511;DHT22;62991;50.040;18.400;2023-05-07T06:48:44;10.10;72.60
74511;DHT22;62991;50.040;18.400;2023-05-07T06:51:45;10.10;72.10
74511;DHT22;62991;50.040;18.400;2023-05-07T06:54:45;10.20;72.20
74511;DHT22;62991;50.040;18.400;2023-05-07T06:57:46;10.10;72.30
74511;DHT22;62991;50.040;18.400;2023-05-07T07:00:47;10.10;71.60
74511;DHT22;62991;50.040;18.400;2023-05-07T07:03:47;10.00;72.20
74511;DHT22;62991;50.040;18.400;2023-05-07T07:06:48;10.00;72.60
74511;DHT22;62991;50.040;18.400;2023-05-07T07:09:49;10.10;73.90
74511;DHT22;62991;50.040;18.400;2023-05-07T07:12:51;10.10;72.60
74511;DHT22;62991;50.040;18.400;2023-05-07T07:15:53;10.30;72.70
74511;DHT22;62991;50.040;18.400;2023-05-07T07:18:53;10.60;72.80
74511;DHT22;62991;50.040;18.400;2023-05-07T07:21:54;10.60;70.60
74511;DHT22;62991;50.040;18.400;2023-05-07T07:24:55;10.30;71.50
74511;DHT22;62991;50.040;18.400;2023-05-07T07:27:55;10.30;72.20
74511;DHT22;62991;50.040;18.400;2023-05-07T07:30:56;10.30;71.00
74511;DHT22;62991;50.040;18.400;2023-05-07T07:33:57;10.10;71.60
74511;DHT22;62991;50.040;18.400;2023-05-07T07:36:57;9.90;72.10
74511;DHT22;62991;50.040;18.400;2023-05-07T07:39:58;9.70;72.70
74511;DHT22;62991;50.040;18.400;2023-05-07T07:42:59;9.50;73.40
74511;DHT22;62991;50.040;18.400;2023-05-07T07:46:01;9.60;73.40
74511;DHT22;62991;50.040;18.400;2023-05-07T07:49:02;9.50;73.30
74511;DHT22;62991;50.040;18.400;2023-05-07T07:52:03;9.50;73.20
74511;DHT22;62991;50.040;18.400;2023-05-07T07:55:04;9.40;73.50
74511;DHT22;62991;50.040;18.400;2023-05-07T07:58:05;9.30;74.00
74511;DHT22;62991;50.040;18.400;2023-05-07T08:01:06;9.30;73.90
74511;DHT22;62991;50.040;18.400;2023-05-07T08:04:06;9.30;73.90
74511;DHT22;62991;50.040;18.400;2023-05-07T08:07:07;9.30;74.10
74511;DHT22;62991;50.040;18.400;2023-05-07T08:10:08;9.30;73.50
74511;DHT22;62991;50.040;18.400;2023-05-07T08:13:09;9.40;73.40
74511;DHT22;62991;50.040;18.400;2023-05-07T08:16:10;9.40;73.70
74511;DHT22;62991;50.040;18.400;2023-05-07T08:19:10;9.30;72.80
74511;DHT22;62991;50.040;18.400;2023-05-07T08:22:11;9.50;72.80
74511;DHT22;62991;50.040;18.400;2023-05-07T08:25:12;9.90;71.30
74511;DHT22;62991;50.040;18.400;2023-05-07T08:28:12;10.40;70.50
74511;DHT22;62991;50.040;18.400;2023-05-07T08:31:13;10.60;68.10
74511;DHT22;62991;50.040;18.400;2023-05-07T08:34:14;10.40;68.50
74511;DHT22;62991;50.040;18.400;2023-05-07T08:37:14;10.50;67.30
74511;DHT22;62991;50.040;18.400;2023-05-07T08:40:15;10.60;67.70
74511;DHT22;62991;50.040;18.400;2023-05-07T08:43:17;10.50;67.90
74511;DHT22;62991;50.040;18.400;2023-05-07T08:46:22;10.40;67.30
74511;DHT22;62991;50.040;18.400;2023-05-07T08:49:22;10.20;67.70
74511;DHT22;62991;50.040;18.400;2023-05-07T08:52:23;10.30;68.10
74511;DHT22;62991;50.040;18.400;2023-05-07T08:55:24;10.60;67.60
74511;DHT22;62991;50.040;18.400;2023-05-07T08:58:25;10.60;66.10
74511;DHT22;62991;50.040;18.400;2023-05-07T09:01:26;10.60;66.40
74511;DHT22;62991;50.040;18.400;2023-05-07T09:04:27;10.70;67.10
74511;DHT22;62991;50.040;18.400;2023-05-07T09:07:28;11.00;66.60
74511;DHT22;62991;50.040;18.400;2023-05-07T09:10:33;11.20;65.80
74511;DHT22;62991;50.040;18.400;2023-05-07T09:13:34;11.40;65.50
74511;DHT22;62991;50.040;18.400;2023-05-07T09:16:35;11.50;64.10
74511;DHT22;62991;50.040;18.400;2023-05-07T09:19:35;11.40;63.60
74511;DHT22;62991;50.040;18.400;2023-05-07T09:22:37;11.20;63.80
74511;DHT22;62991;50.040;18.400;2023-05-07T09:25:38;11.20;64.70
74511;DHT22;62991;50.040;18.400;2023-05-07T09:28:43;11.10;64.40
74511;DHT22;62991;50.040;18.400;2023-05-07T09:31:43;11.10;64.30
74511;DHT22;62991;50.040;18.400;2023-05-07T09:34:44;11.30;64.40
74511;DHT22;62991;50.040;18.400;2023-05-07T09:37:45;11.60;64.00
74511;DHT22;62991;50.040;18.400;2023-05-07T09:40:46;11.80;62.70
74511;DHT22;62991;50.040;18.400;2023-05-07T09:43:53;11.40;62.40
74511;DHT22;62991;50.040;18.400;2023-05-07T09:46:55;11.50;63.60
74511;DHT22;62991;50.040;18.400;2023-05-07T09:49:57;11.40;63.10
74511;DHT22;62991;50.040;18.400;2023-05-07T09:53:00;11.40;63.10
74511;DHT22;62991;50.040;18.400;2023-05-07T09:56:01;11.10;63.10
74511;DHT22;62991;50.040;18.400;2023-05-07T09:59:03;10.80;64.70
74511;DHT22;62991;50.040;18.400;2023-05-07T10:02:04;10.90;64.10
74511;DHT22;62991;50.040;18.400;2023-05-07T10:05:05;10.80;63.90
74511;DHT22;62991;50.040;18.400;2023-05-07T10:08:07;10.70;64.50
74511;DHT22;62991;50.040;18.400;2023-05-07T10:11:09;10.70;63.90
74511;DHT22;62991;50.040;18.400;2023-05-07T10:14:10;11.00;65.40
74511;DHT22;62991;50.040;18.400;2023-05-07T10:17:12;11.40;64.60
74511;DHT22;62991;50.040;18.400;2023-05-07T10:20:14;11.30;62.80
74511;DHT22;62991;50.040;18.400;2023-05-07T10:23:19;11.20;63.90
74511;DHT22;62991;50.040;18.400;2023-05-07T10:26:24;11.40;63.40
74511;DHT22;62991;50.040;18.400;2023-05-07T10:29:36;11.40;63.40
74511;DHT22;62991;50.040;18.400;2023-05-07T10:35:44;11.40;62.70
74511;DHT22;62991;50.040;18.400;2023-05-07T10:38:45;11.60;62.80
74511;DHT22;62991;50.040;18.400;2023-05-07T10:41:47;11.90;63.60
74511;DHT22;62991;50.040;18.400;2023-05-07T10:44:48;12.10;61.30
74511;DHT22;62991;50.040;18.400;2023-05-07T10:48:08;12.40;60.60
74511;DHT22;62991;50.040;18.400;2023-05-07T10:51:20;12.40;60.30
74511;DHT22;62991;50.040;18.400;2023-05-07T10:54:22;12.60;59.20
74511;DHT22;62991;50.040;18.400;2023-05-07T11:04:13;12.20;61.30
74511;DHT22;62991;50.040;18.400;2023-05-07T11:07:25;12.20;59.80
74511;DHT22;62991;50.040;18.400;2023-05-07T11:10:50;12.20;60.20
74511;DHT22;62991;50.040;18.400;2023-05-07T11:13:51;12.00;59.40
74511;DHT22;62991;50.040;18.400;2023-05-07T11:17:02;11.80;60.10
74511;DHT22;62991;50.040;18.400;2023-05-07T11:20:03;11.60;60.90
74511;DHT22;62991;50.040;18.400;2023-05-07T11:23:06;11.40;61.40
74511;DHT22;62991;50.040;18.400;2023-05-07T11:26:08;11.20;62.00
74511;DHT22;62991;50.040;18.400;2023-05-07T11:29:17;11.20;62.90
74511;DHT22;62991;50.040;18.400;2023-05-07T11:32:28;11.10;62.20
74511;DHT22;62991;50.040;18.400;2023-05-07T11:35:29;11.00;62.80
74511;DHT22;62991;50.040;18.400;2023-05-07T11:38:34;10.70;63.30
74511;DHT22;62991;50.040;18.400;2023-05-07T11:41:36;10.70;63.30
74511;DHT22;62991;50.040;18.400;2023-05-07T11:44:44;10.90;63.70
74511;DHT22;62991;50.040;18.400;2023-05-07T11:47:46;11.00;63.50
74511;DHT22;62991;50.040;18.400;2023-05-07T11:51:22;11.10;64.00
74511;DHT22;62991;50.040;18.400;2023-05-07T11:54:23;11.40;62.80
74511;DHT22;62991;50.040;18.400;2023-05-07T11:57:25;11.70;60.90
74511;DHT22;62991;50.040;18.400;2023-05-07T12:00:25;11.80;60.70
74511;DHT22;62991;50.040;18.400;2023-05-07T12:03:26;11.80;60.40
74511;DHT22;62991;50.040;18.400;2023-05-07T12:06:27;11.60;61.00
74511;DHT22;62991;50.040;18.400;2023-05-07T12:09:28;11.30;61.70
74511;DHT22;62991;50.040;18.400;2023-05-07T12:12:28;11.00;62.10
74511;DHT22;62991;50.040;18.400;2023-05-07T12:15:30;10.80;62.30
74511;DHT22;62991;50.040;18.400;2023-05-07T12:18:30;10.90;63.60
74511;DHT22;62991;50.040;18.400;2023-05-07T12:21:31;11.10;62.60
74511;DHT22;62991;50.040;18.400;2023-05-07T12:25:01;11.30;63.20
74511;DHT22;62991;50.040;18.400;2023-05-07T12:28:03;11.30;62.20
74511;DHT22;62991;50.040;18.400;2023-05-07T12:31:06;11.20;63.50
74511;DHT22;62991;50.040;18.400;2023-05-07T12:34:06;11.50;62.20
74511;DHT22;62991;50.040;18.400;2023-05-07T12:37:07;11.40;61.60
74511;DHT22;62991;50.040;18.400;2023-05-07T12:40:09;11.60;62.50
74511;DHT22;62991;50.040;18.400;2023-05-07T12:43:28;11.50;61.40
74511;DHT22;62991;50.040;18.400;2023-05-07T12:46:29;11.20;61.40
74511;DHT22;62991;50.040;18.400;2023-05-07T12:49:30;10.90;62.60
74511;DHT22;62991;50.040;18.400;2023-05-07T12:52:30;10.90;62.40
74511;DHT22;62991;50.040;18.400;2023-05-07T12:55:32;10.70;62.60
74511;DHT22;62991;50.040;18.400;2023-05-07T12:58:35;10.60;63.50
74511;DHT22;62991;50.040;18.400;2023-05-07T13:01:36;10.60;64.20
74511;DHT22;62991;50.040;18.400;2023-05-07T13:04:37;10.60;63.10
74511;DHT22;62991;50.040;18.400;2023-05-07T13:07:38;10.70;63.10
74511;DHT22;62991;50.040;18.400;2023-05-07T13:10:38;10.60;63.60
74511;DHT22;62991;50.040;18.400;2023-05-07T13:13:40;10.70;63.80
74511;DHT22;62991;50.040;18.400;2023-05-07T13:16:41;10.70;63.80
74511;DHT22;62991;50.040;18.400;2023-05-07T13:19:42;10.60;63.50
74511;DHT22;62991;50.040;18.400;2023-05-07T13:22:42;10.70;64.10
74511;DHT22;62991;50.040;18.400;2023-05-07T13:25:43;10.90;63.30
74511;DHT22;62991;50.040;18.400;2023-05-07T13:28:44;10.80;62.90
74511;DHT22;62991;50.040;18.400;2023-05-07T13:31:44;10.90;63.30
74511;DHT22;62991;50.040;18.400;2023-05-07T13:34:45;10.90;63.80
74511;DHT22;62991;50.040;18.400;2023-05-07T13:37:46;10.80;63.10
74511;DHT22;62991;50.040;18.400;2023-05-07T13:40:46;10.70;63.00
74511;DHT22;62991;50.040;18.400;2023-05-07T13:43:47;10.60;63.00
74511;DHT22;62991;50.040;18.400;2023-05-07T13:46:48;10.40;63.40
74511;DHT22;62991;50.040;18.400;2023-05-07T13:49:48;10.30;64.10
74511;DHT22;62991;50.040;18.400;2023-05-07T13:52:52;10.30;64.00
74511;DHT22;62991;50.040;18.400;2023-05-07T13:55:53;10.40;64.50
74511;DHT22;62991;50.040;18.400;2023-05-07T13:58:53;10.30;64.30
74511;DHT22;62991;50.040;18.400;2023-05-07T14:01:54;10.30;64.20
74511;DHT22;62991;50.040;18.400;2023-05-07T14:04:55;10.40;64.20
74511;DHT22;62991;50.040;18.400;2023-05-07T14:07:57;10.50;64.10
74511;DHT22;62991;50.040;18.400;2023-05-07T14:10:58;10.60;63.40
74511;DHT22;62991;50.040;18.400;2023-05-07T14:13:59;10.80;63.20
74511;DHT22;62991;50.040;18.400;2023-05-07T14:16:59;11.10;63.00
74511;DHT22;62991;50.040;18.400;2023-05-07T14:20:00;11.10;62.10
74511;DHT22;62991;50.040;18.400;2023-05-07T14:23:01;11.20;62.20
74511;DHT22;62991;50.040;18.400;2023-05-07T14:26:01;11.20;62.30
74511;DHT22;62991;50.040;18.400;2023-05-07T14:29:03;11.40;61.90
74511;DHT22;62991;50.040;18.400;2023-05-07T14:32:04;11.60;61.10
74511;DHT22;62991;50.040;18.400;2023-05-07T14:35:04;11.50;60.50
74511;DHT22;62991;50.040;18.400;2023-05-07T14:38:05;11.50;60.10
74511;DHT22;62991;50.040;18.400;2023-05-07T14:41:06;11.70;60.90
74511;DHT22;62991;50.040;18.400;2023-05-07T14:44:06;11.90;60.20
74511;DHT22;62991;50.040;18.400;2023-05-07T14:47:07;11.70;60.40
74511;DHT22;62991;50.040;18.400;2023-05-07T14:50:08;11.30;61.30
74511;DHT22;62991;50.040;18.400;2023-05-07T14:53:09;11.20;61.90
74511;DHT22;62991;50.040;18.400;2023-05-07T14:56:10;11.40;61.10
74511;DHT22;62991;50.040;18.400;2023-05-07T14:59:10;11.30;61.10
74511;DHT22;62991;50.040;18.400;2023-05-07T15:02:11;11.30;60.70
74511;DHT22;62991;50.040;18.400;2023-05-07T15:05:12;11.30;60.50
74511;DHT22;62991;50.040;18.400;2023-05-07T15:08:14;11.20;60.50
74511;DHT22;62991;50.040;18.400;2023-05-07T15:11:15;11.30;60.70
74511;DHT22;62991;50.040;18.400;2023-05-07T15:14:17;11.40;60.60
74511;DHT22;62991;50.040;18.400;2023-05-07T15:17:17;11.50;60.80
74511;DHT22;62991;50.040;18.400;2023-05-07T15:20:18;11.60;60.50
74511;DHT22;62991;50.040;18.400;2023-05-07T15:23:19;11.80;59.40
74511;DHT22;62991;50.040;18.400;2023-05-07T15:26:20;11.70;59.20
74511;DHT22;62991;50.040;18.400;2023-05-07T15:29:21;11.70;59.50
74511;DHT22;62991;50.040;18.400;2023-05-07T15:32:22;11.80;58.80
74511;DHT22;62991;50.040;18.400;2023-05-07T15:35:22;12.00;58.90
74511;DHT22;62991;50.040;18.400;2023-05-07T15:38:23;11.90;58.20
74511;DHT22;62991;50.040;18.400;2023-05-07T15:41:24;12.00;58.70
74511;DHT22;62991;50.040;18.400;2023-05-07T15:44:25;12.20;58.40
74511;DHT22;62991;50.040;18.400;2023-05-07T15:47:32;12.00;58.80
74511;DHT22;62991;50.040;18.400;2023-05-07T15:50:35;11.90;59.00
74511;DHT22;62991;50.040;18.400;2023-05-07T15:53:36;11.70;59.20
74511;DHT22;62991;50.040;18.400;2023-05-07T15:56:37;11.60;58.90
74511;DHT22;62991;50.040;18.400;2023-05-07T15:59:38;11.50;59.90
74511;DHT22;62991;50.040;18.400;2023-05-07T16:02:39;11.50;59.50
74511;DHT22;62991;50.040;18.400;2023-05-07T16:05:40;11.40;59.90
74511;DHT22;62991;50.040;18.400;2023-05-07T16:08:41;11.50;59.60
74511;DHT22;62991;50.040;18.400;2023-05-07T16:11:43;11.50;59.60
74511;DHT22;62991;50.040;18.400;2023-05-07T16:14:44;11.50;59.50
74511;DHT22;62991;50.040;18.400;2023-05-07T16:17:46;11.30;59.30
74511;DHT22;62991;50.040;18.400;2023-05-07T16:20:48;11.40;59.60
74511;DHT22;62991;50.040;18.400;2023-05-07T16:23:49;11.70;59.00
74511;DHT22;62991;50.040;18.400;2023-05-07T16:26:50;11.80;58.40
74511;DHT22;62991;50.040;18.400;2023-05-07T16:29:50;11.80;58.60
74511;DHT22;62991;50.040;18.400;2023-05-07T16:32:51;11.80;58.20
74511;DHT22;62991;50.040;18.400;2023-05-07T16:35:52;11.80;58.20
74511;DHT22;62991;50.040;18.400;2023-05-07T16:38:53;12.00;57.70
74511;DHT22;62991;50.040;18.400;2023-05-07T16:41:53;12.20;57.20
74511;DHT22;62991;50.040;18.400;2023-05-07T16:44:54;12.10;57.50
74511;DHT22;62991;50.040;18.400;2023-05-07T16:47:55;12.10;57.00
74511;DHT22;62991;50.040;18.400;2023-05-07T16:50:57;12.20;57.10
74511;DHT22;62991;50.040;18.400;2023-05-07T16:53:59;12.20;57.20
74511;DHT22;62991;50.040;18.400;2023-05-07T16:56:59;12.10;57.40
74511;DHT22;62991;50.040;18.400;2023-05-07T17:00:00;12.00;57.20
74511;DHT22;62991;50.040;18.400;2023-05-07T17:03:02;11.40;58.60
74511;DHT22;62991;50.040;18.400;2023-05-07T17:06:03;11.10;59.80
74511;DHT22;62991;50.040;18.400;2023-05-07T17:09:04;11.00;60.10
74511;DHT22;62991;50.040;18.400;2023-05-07T17:12:04;11.20;60.30
74511;DHT22;62991;50.040;18.400;2023-05-07T17:15:05;11.40;59.50
74511;DHT22;62991;50.040;18.400;2023-05-07T17:18:06;11.40;59.00
74511;DHT22;62991;50.040;18.400;2023-05-07T17:21:07;11.40;59.30
74511;DHT22;62991;50.040;18.400;2023-05-07T17:24:08;11.30;59.20
74511;DHT22;62991;50.040;18.400;2023-05-07T17:27:11;11.20;59.60
74511;DHT22;62991;50.040;18.400;2023-05-07T17:30:14;10.90;60.30
74511;DHT22;62991;50.040;18.400;2023-05-07T17:33:16;11.10;59.60
74511;DHT22;62991;50.040;18.400;2023-05-07T17:36:17;11.30;59.50
74511;DHT22;62991;50.040;18.400;2023-05-07T17:39:18;11.40;59.10
74511;DHT22;62991;50.040;18.400;2023-05-07T17:42:18;11.50;59.00
74511;DHT22;62991;50.040;18.400;2023-05-07T17:45:19;11.30;59.10
74511;DHT22;62991;50.040;18.400;2023-05-07T17:48:20;11.30;59.30
74511;DHT22;62991;50.040;18.400;2023-05-07T17:51:21;11.40;59.00
74511;DHT22;62991;50.040;18.400;2023-05-07T17:54:22;11.30;59.20
74511;DHT22;62991;50.040;18.400;2023-05-07T17:57:25;11.30;58.90
74511;DHT22;62991;50.040;18.400;2023-05-07T18:00:27;11.40;59.30
74511;DHT22;62991;50.040;18.400;2023-05-07T18:03:28;11.50;59.10
74511;DHT22;62991;50.040;18.400;2023-05-07T18:06:30;11.50;59.30
74511;DHT22;62991;50.040;18.400;2023-05-07T18:09:31;11.50;58.90
74511;DHT22;62991;50.040;18.400;2023-05-07T18:12:33;11.70;58.70
74511;DHT22;62991;50.040;18.400;2023-05-07T18:15:35;11.60;59.00
74511;DHT22;62991;50.040;18.400;2023-05-07T18:18:36;11.30;59.00
74511;DHT22;62991;50.040;18.400;2023-05-07T18:21:36;11.30;59.30
74511;DHT22;62991;50.040;18.400;2023-05-07T18:24:37;11.00;59.60
74511;DHT22;62991;50.040;18.400;2023-05-07T18:27:41;10.90;60.40
74511;DHT22;62991;50.040;18.400;2023-05-07T18:30:41;11.10;59.80
74511;DHT22;62991;50.040;18.400;2023-05-07T18:33:42;11.10;59.20
74511;DHT22;62991;50.040;18.400;2023-05-07T18:36:43;11.00;59.60
74511;DHT22;62991;50.040;18.400;2023-05-07T18:39:44;10.70;59.50
74511;DHT22;62991;50.040;18.400;2023-05-07T18:42:45;10.60;60.40
74511;DHT22;62991;50.040;18.400;2023-05-07T18:45:47;10.80;59.80
74511;DHT22;62991;50.040;18.400;2023-05-07T18:48:48;10.60;59.90
74511;DHT22;62991;50.040;18.400;2023-05-07T18:51:49;10.70;60.00
74511;DHT22;62991;50.040;18.400;2023-05-07T18:54:50;10.80;59.80
74511;DHT22;62991;50.040;18.400;2023-05-07T18:57:52;11.00;59.10
74511;DHT22;62991;50.040;18.400;2023-05-07T19:00:53;11.10;58.50